createdAt,value
2019-01-03T00:01:57.964Z,55.46
2019-01-03T00:05:01.518Z,55.47
2019-01-03T00:07:48.700Z,57.28
2019-01-03T00:10:33.035Z,56.11
2019-01-03T00:13:34.355Z,57.29
2019-01-03T00:16:26.055Z,57.29
2019-01-03T00:19:13.300Z,56.62
2019-01-03T00:22:00.538Z,56.78
2019-01-03T00:24:55.715Z,57.11
2019-01-03T00:27:57.086Z,57.04
2019-01-03T00:30:44.372Z,57.46
2019-01-03T00:33:31.804Z,56.59
2019-01-03T00:36:19.638Z,56.80
2019-01-03T00:39:06.485Z,56.96
2019-01-03T00:42:07.252Z,56.91
2019-01-03T00:45:01.847Z,56.70
2019-01-03T00:47:52.137Z,57.41
2019-01-03T00:50:40.874Z,57.28
2019-01-03T00:53:22.389Z,57.66
2019-01-03T00:56:07.773Z,57.95
2019-01-03T00:58:55.099Z,58.64
2019-01-03T01:01:57.202Z,58.10
2019-01-03T01:04:52.388Z,57.94
2019-01-03T01:07:40.498Z,58.23
2019-01-03T01:10:31.603Z,58.50
2019-01-03T01:13:18.692Z,58.03
2019-01-03T01:16:05.744Z,58.22
2019-01-03T01:18:55.659Z,58.55
2019-01-03T01:21:39.129Z,58.55
2019-01-03T01:24:29.161Z,58.26
2019-01-03T01:27:10.248Z,58.31
2019-01-03T01:29:57.673Z,57.98
2019-01-03T01:32:45.286Z,58.13
2019-01-03T01:35:33.226Z,59.04
2019-01-03T01:38:17.811Z,59.00
2019-01-03T01:41:19.795Z,58.30
2019-01-03T01:44:19.476Z,58.80
2019-01-03T01:47:17.712Z,59.04
2019-01-03T01:50:09.416Z,58.66
2019-01-03T01:52:57.959Z,58.66
2019-01-03T01:55:57.803Z,58.59
2019-01-03T01:58:58.957Z,59.23
2019-01-03T02:01:42.190Z,59.09
2019-01-03T02:04:42.785Z,59.46
2019-01-03T02:07:29.782Z,59.23
2019-01-03T02:10:22.486Z,58.84
2019-01-03T02:13:09.614Z,58.97
2019-01-03T02:15:54.596Z,59.21
2019-01-03T02:18:45.259Z,59.25
2019-01-03T02:21:32.941Z,59.75
2019-01-03T02:24:11.185Z,59.47
2019-01-03T02:27:02.802Z,59.58
2019-01-03T02:30:04.563Z,59.35
2019-01-03T02:32:46.089Z,59.70
2019-01-03T02:35:49.951Z,59.43
2019-01-03T02:38:37.347Z,59.81
2019-01-03T02:41:24.624Z,59.82
2019-01-03T02:44:17.369Z,59.72
2019-01-03T02:47:01.295Z,60.11
2019-01-03T02:49:43.205Z,60.34
2019-01-03T02:52:35.016Z,60.21
2019-01-03T02:55:34.309Z,60.98
2019-01-03T02:58:26.170Z,60.68
2019-01-03T03:01:15.198Z,60.03
2019-01-03T03:04:10.177Z,60.31
2019-01-03T03:06:57.765Z,60.30
2019-01-03T03:09:58.581Z,60.55
2019-01-03T03:12:53.202Z,60.53
2019-01-03T03:15:45.063Z,60.65
2019-01-03T03:18:27.933Z,60.56
2019-01-03T03:21:19.654Z,60.19
2019-01-03T03:23:56.530Z,60.79
2019-01-03T03:26:38.541Z,61.28
2019-01-03T03:29:38.305Z,60.79
2019-01-03T03:32:31.105Z,60.93
2019-01-03T03:35:20.874Z,60.88
2019-01-03T03:38:05.929Z,60.25
2019-01-03T03:40:54.474Z,60.23
2019-01-03T03:43:43.301Z,59.84
2019-01-03T03:46:31.095Z,60.92
2019-01-03T03:49:28.254Z,60.90
2019-01-03T03:52:15.869Z,60.97
2019-01-03T03:55:04.990Z,60.26
2019-01-03T03:57:59.618Z,60.60
2019-01-03T04:00:57.397Z,60.91
2019-01-03T04:03:44.486Z,61.27
2019-01-03T04:06:34.658Z,60.87
2019-01-03T04:09:39.322Z,62.21
2019-01-03T04:12:37.269Z,61.74
2019-01-03T04:15:34.790Z,61.56
2019-01-03T04:18:22.197Z,62.07
2019-01-03T04:21:15.256Z,62.03
2019-01-03T04:24:02.713Z,62.39
2019-01-03T04:26:59.714Z,61.45
2019-01-03T04:29:51.201Z,62.20
2019-01-03T04:32:39.142Z,61.99
2019-01-03T04:35:42.994Z,63.18
2019-01-03T04:38:37.539Z,61.57
2019-01-03T04:41:24.751Z,61.69
2019-01-03T04:44:09.659Z,62.83
2019-01-03T04:46:49.920Z,62.73
2019-01-03T04:49:44.825Z,62.20
2019-01-03T04:52:32.283Z,63.07
2019-01-03T04:55:19.567Z,63.50
2019-01-03T04:58:07.121Z,62.45
2019-01-03T05:01:04.866Z,63.28
2019-01-03T05:04:09.270Z,61.62
2019-01-03T05:07:09.690Z,62.11
2019-01-03T05:09:56.249Z,63.04
2019-01-03T05:12:37.261Z,62.85
2019-01-03T05:15:15.512Z,62.19
2019-01-03T05:18:02.832Z,64.24
2019-01-03T05:20:51.686Z,63.04
2019-01-03T05:23:47.668Z,63.11
2019-01-03T05:26:28.339Z,63.27
2019-01-03T05:29:15.755Z,63.18
2019-01-03T05:32:02.090Z,62.77
2019-01-03T05:34:57.176Z,62.38
2019-01-03T05:37:39.847Z,62.83
2019-01-03T05:40:27.247Z,62.86
2019-01-03T05:43:16.096Z,63.07
2019-01-03T05:46:21.425Z,64.01
2019-01-03T05:49:25.546Z,62.99
2019-01-03T05:52:10.364Z,63.69
2019-01-03T05:55:14.745Z,64.40
2019-01-03T05:58:08.932Z,64.17
2019-01-03T06:00:51.227Z,63.00
2019-01-03T06:03:50.538Z,63.90
2019-01-03T06:06:41.795Z,63.91
2019-01-03T06:09:33.796Z,63.66
2019-01-03T06:12:13.304Z,62.27
2019-01-03T06:15:10.945Z,63.36
2019-01-03T06:17:55.029Z,63.96
2019-01-03T06:20:59.015Z,62.53
2019-01-03T06:24:06.859Z,63.45
2019-01-03T06:27:13.858Z,62.01
2019-01-03T06:29:58.490Z,62.13
2019-01-03T06:32:53.164Z,63.56
2019-01-03T06:35:44.060Z,63.55
2019-01-03T06:38:23.662Z,62.60
2019-01-03T06:41:13.226Z,62.74
2019-01-03T06:44:00.847Z,63.85
2019-01-03T06:46:59.671Z,64.35
2019-01-03T06:49:58.848Z,62.01
2019-01-03T06:52:46.428Z,64.54
2019-01-03T06:55:41.163Z,63.58
2019-01-03T06:58:29.982Z,64.21
2019-01-03T07:01:27.772Z,63.25
2019-01-03T07:04:22.313Z,63.49
2019-01-03T07:07:19.215Z,64.96
2019-01-03T07:10:11.039Z,64.68
2019-01-03T07:13:02.049Z,63.57
2019-01-03T07:15:47.142Z,64.83
2019-01-03T07:18:45.989Z,64.22
2019-01-03T07:21:32.275Z,63.76
2019-01-03T07:24:35.850Z,63.62
2019-01-03T07:27:42.968Z,65.18
2019-01-03T07:30:30.365Z,64.71
2019-01-03T07:33:18.042Z,63.61
2019-01-03T07:36:17.924Z,62.79
2019-01-03T07:39:09.810Z,64.16
2019-01-03T07:42:08.285Z,64.48
2019-01-03T07:44:56.106Z,63.58
2019-01-03T07:47:45.411Z,64.90
2019-01-03T07:50:48.931Z,63.56
2019-01-03T07:53:32.412Z,65.59
2019-01-03T07:56:20.019Z,63.90
2019-01-03T07:59:14.172Z,63.62
2019-01-03T08:02:03.290Z,65.76
2019-01-03T08:04:51.279Z,65.76
2019-01-03T08:07:47.936Z,64.72
2019-01-03T08:10:48.474Z,63.33
2019-01-03T08:13:40.080Z,63.39
2019-01-03T08:16:44.859Z,64.10
2019-01-03T08:19:35.294Z,62.81
2019-01-03T08:22:29.642Z,62.78
2019-01-03T08:25:24.572Z,63.01
2019-01-03T08:28:11.895Z,63.23
2019-01-03T08:30:59.514Z,63.71
2019-01-03T08:34:01.186Z,63.03
2019-01-03T08:37:08.497Z,62.30
2019-01-03T08:39:58.183Z,62.38
2019-01-03T08:42:52.803Z,61.75
2019-01-03T08:45:47.629Z,62.79
2019-01-03T08:48:35.124Z,61.55
2019-01-03T08:51:22.974Z,61.17
2019-01-03T08:54:17.474Z,61.36
2019-01-03T08:57:20.423Z,60.99
2019-01-03T09:00:21.187Z,61.76
2019-01-03T09:03:08.312Z,61.26
2019-01-03T09:05:56.115Z,62.59
2019-01-03T09:08:50.181Z,63.46
2019-01-03T09:11:48.048Z,64.05
2019-01-03T09:14:39.942Z,64.87
2019-01-03T09:17:26.955Z,65.41
2019-01-03T09:20:14.018Z,65.28
2019-01-03T09:23:02.540Z,65.68
2019-01-03T09:26:00.358Z,65.31
2019-01-03T09:28:47.514Z,66.31
2019-01-03T09:31:34.927Z,65.64
2019-01-03T09:34:30.258Z,66.32
2019-01-03T09:37:17.710Z,66.75
2019-01-03T09:40:06.056Z,67.12
2019-01-03T09:42:53.038Z,67.23
2019-01-03T09:45:22.881Z,67.87
2019-01-03T09:47:52.383Z,68.27
2019-01-03T09:50:22.163Z,67.76
2019-01-03T09:52:52.259Z,68.67
2019-01-03T09:55:22.443Z,68.81
2019-01-03T09:57:52.614Z,68.88
2019-01-03T10:00:22.235Z,69.26
2019-01-03T10:02:51.751Z,69.26
2019-01-03T10:05:22.067Z,68.94
2019-01-03T10:07:52.390Z,69.61
2019-01-03T10:10:21.966Z,70.21
2019-01-03T10:12:51.509Z,70.33
2019-01-03T10:15:22.506Z,70.61
2019-01-03T10:17:52.596Z,70.98
2019-01-03T10:20:22.309Z,70.45
2019-01-03T10:22:52.081Z,70.53
2019-01-03T10:25:21.865Z,70.10
2019-01-03T10:27:51.634Z,70.43
2019-01-03T10:30:21.453Z,70.06
2019-01-03T10:32:51.034Z,70.31
2019-01-03T10:35:20.680Z,70.23
2019-01-03T10:37:50.337Z,70.41
2019-01-03T10:40:20.453Z,70.73
2019-01-03T10:42:50.675Z,70.64
2019-01-03T10:45:20.208Z,70.82
2019-01-03T10:47:49.685Z,70.52
2019-01-03T10:50:19.167Z,70.74
2019-01-03T10:52:49.112Z,70.50
2019-01-03T10:55:19.394Z,70.30
2019-01-03T10:57:49.016Z,70.33
2019-01-03T11:00:18.522Z,70.12
2019-01-03T11:02:48.743Z,70.25
2019-01-03T11:05:18.243Z,70.19
2019-01-03T11:07:48.083Z,70.13
2019-01-03T11:10:17.885Z,69.94
2019-01-03T11:12:47.818Z,69.47
2019-01-03T11:15:17.768Z,69.76
2019-01-03T11:17:47.547Z,69.90
2019-01-03T11:20:17.632Z,69.74
2019-01-03T11:22:47.547Z,69.79
2019-01-03T11:25:17.667Z,69.12
2019-01-03T11:27:47.170Z,68.50
2019-01-03T11:30:16.686Z,69.06
2019-01-03T11:32:46.324Z,69.28
2019-01-03T11:35:16.299Z,69.33
2019-01-03T11:37:46.459Z,69.42
2019-01-03T11:40:17.224Z,69.11
2019-01-03T11:42:47.010Z,69.58
2019-01-03T11:45:16.806Z,69.00
2019-01-03T11:47:46.416Z,68.50
2019-01-03T11:50:16.182Z,67.98
2019-01-03T11:52:45.833Z,67.62
2019-01-03T11:55:15.922Z,68.08
2019-01-03T11:57:45.402Z,68.15
2019-01-03T12:00:15.070Z,67.47
2019-01-03T12:02:44.550Z,67.73
2019-01-03T12:05:14.455Z,66.23
2019-01-03T12:07:44.314Z,65.23
2019-01-03T12:10:14.091Z,64.42
2019-01-03T12:12:44.345Z,63.90
2019-01-03T12:15:14.021Z,63.23
2019-01-03T12:17:44.445Z,64.02
2019-01-03T12:20:14.261Z,63.67
2019-01-03T12:22:43.759Z,63.79
2019-01-03T12:25:13.554Z,62.13
2019-01-03T12:27:43.653Z,62.63
2019-01-03T12:30:13.146Z,63.44
2019-01-03T12:32:43.012Z,64.01
2019-01-03T12:35:12.655Z,62.67
2019-01-03T12:37:42.445Z,62.67
2019-01-03T12:40:12.588Z,61.19
2019-01-03T12:42:42.980Z,62.29
2019-01-03T12:45:12.473Z,62.39
2019-01-03T12:47:43.126Z,63.14
2019-01-03T12:50:12.656Z,63.49
2019-01-03T12:52:42.979Z,63.74
2019-01-03T12:55:12.851Z,63.19
2019-01-03T12:57:42.516Z,62.82
2019-01-03T13:00:13.199Z,62.95
2019-01-03T13:02:43.257Z,63.39
2019-01-03T13:05:13.145Z,63.28
2019-01-03T13:07:42.718Z,62.83
2019-01-03T13:10:13.096Z,62.86
2019-01-03T13:12:42.778Z,62.43
2019-01-03T13:15:12.821Z,62.63
2019-01-03T13:17:43.214Z,63.19
2019-01-03T13:20:12.940Z,62.74
2019-01-03T13:22:43.383Z,62.73
2019-01-03T13:25:13.491Z,62.61
2019-01-03T13:27:43.454Z,61.93
2019-01-03T13:30:13.234Z,61.89
2019-01-03T13:32:43.405Z,62.06
2019-01-03T13:35:13.482Z,61.81
2019-01-03T13:37:43.482Z,61.56
2019-01-03T13:40:14.579Z,62.10
2019-01-03T13:42:44.421Z,61.85
2019-01-03T13:45:14.207Z,62.04
2019-01-03T13:47:44.341Z,61.96
2019-01-03T13:50:14.202Z,61.36
2019-01-03T13:52:43.986Z,61.53
2019-01-03T13:55:13.548Z,61.84
2019-01-03T13:57:43.590Z,62.19
2019-01-03T14:00:14.027Z,62.17
2019-01-03T14:02:44.145Z,62.03
2019-01-03T14:05:13.945Z,62.17
2019-01-03T14:07:44.024Z,62.21
2019-01-03T14:10:14.935Z,62.19
2019-01-03T14:12:44.419Z,62.43
2019-01-03T14:15:14.339Z,62.55
2019-01-03T14:17:44.385Z,62.78
2019-01-03T14:20:14.744Z,62.74
2019-01-03T14:22:44.350Z,63.01
2019-01-03T14:25:14.520Z,63.33
2019-01-03T14:27:44.347Z,63.10
2019-01-03T14:30:14.049Z,63.62
2019-01-03T14:32:43.550Z,63.71
2019-01-03T14:35:13.943Z,63.74
2019-01-03T14:37:43.484Z,63.66
2019-01-03T14:40:13.386Z,63.82
2019-01-03T14:42:43.156Z,63.96
2019-01-03T14:45:12.906Z,63.68
2019-01-03T14:47:42.860Z,64.08
2019-01-03T14:50:13.156Z,64.21
2019-01-03T14:52:42.646Z,64.46
2019-01-03T14:55:12.352Z,64.73
2019-01-03T14:57:41.906Z,64.34
2019-01-03T15:00:13.936Z,64.82
2019-01-03T15:02:43.709Z,64.86
2019-01-03T15:05:14.029Z,65.10
2019-01-03T15:07:43.664Z,65.08
2019-01-03T15:10:13.279Z,65.47
2019-01-03T15:12:43.071Z,65.45
2019-01-03T15:15:12.986Z,65.78
2019-01-03T15:17:43.447Z,65.77
2019-01-03T15:20:14.282Z,66.01
2019-01-03T15:22:44.105Z,66.10
2019-01-03T15:25:14.002Z,66.69
2019-01-03T15:27:43.570Z,66.77
2019-01-03T15:30:13.102Z,67.12
2019-01-03T15:32:42.945Z,67.18
2019-01-03T15:35:12.791Z,67.98
2019-01-03T15:37:44.696Z,67.36
2019-01-03T15:40:16.762Z,67.75
2019-01-03T15:42:46.880Z,67.88
2019-01-03T15:45:16.495Z,68.42
2019-01-03T15:47:46.964Z,68.11
2019-01-03T15:50:16.496Z,68.51
2019-01-03T15:52:46.438Z,69.04
2019-01-03T15:55:16.461Z,69.08
2019-01-03T15:57:46.895Z,69.33
2019-01-03T16:00:16.429Z,69.45
2019-01-03T16:02:46.851Z,69.82
2019-01-03T16:05:16.750Z,70.10
2019-01-03T16:07:46.851Z,70.16
2019-01-03T16:10:16.558Z,70.01
2019-01-03T16:12:46.459Z,69.84
2019-01-03T16:15:16.502Z,69.77
2019-01-03T16:17:46.848Z,69.97
2019-01-03T16:20:16.807Z,69.97
2019-01-03T16:22:46.744Z,69.99
2019-01-03T16:25:16.581Z,69.96
2019-01-03T16:27:46.553Z,70.19
2019-01-03T16:30:16.494Z,69.92
2019-01-03T16:32:46.674Z,70.17
2019-01-03T16:35:18.695Z,70.35
2019-01-03T16:37:49.026Z,70.33
2019-01-03T16:40:19.026Z,70.44
2019-01-03T16:42:48.789Z,70.58
2019-01-03T16:45:18.393Z,70.60
2019-01-03T16:47:48.193Z,70.48
2019-01-03T16:50:18.444Z,70.51
2019-01-03T16:52:47.972Z,70.63
2019-01-03T16:55:17.603Z,70.65
2019-01-03T16:57:47.102Z,70.65
2019-01-03T17:00:17.283Z,70.63
2019-01-03T17:02:47.085Z,70.69
2019-01-03T17:05:17.915Z,70.94
2019-01-03T17:07:47.767Z,71.31
2019-01-03T17:10:18.704Z,71.24
2019-01-03T17:12:48.289Z,71.16
2019-01-03T17:15:18.353Z,71.48
2019-01-03T17:17:47.895Z,71.31
2019-01-03T17:20:17.463Z,71.34
2019-01-03T17:22:47.631Z,71.27
2019-01-03T17:25:18.198Z,71.33
2019-01-03T17:27:47.718Z,71.52
2019-01-03T17:30:18.038Z,71.50
2019-01-03T17:32:47.721Z,71.48
2019-01-03T17:35:17.524Z,71.71
2019-01-03T17:37:48.172Z,71.80
2019-01-03T17:40:19.095Z,71.57
2019-01-03T17:42:48.731Z,71.86
2019-01-03T17:45:18.774Z,71.77
2019-01-03T17:47:48.977Z,71.72
2019-01-03T17:50:19.524Z,71.58
2019-01-03T17:52:49.506Z,71.46
2019-01-03T17:55:22.600Z,71.67
2019-01-03T17:57:52.291Z,71.79
2019-01-03T18:00:23.346Z,71.61
2019-01-03T18:02:53.232Z,71.64
2019-01-03T18:05:22.770Z,71.79
2019-01-03T18:07:52.869Z,71.65
2019-01-03T18:10:22.515Z,71.62
2019-01-03T18:12:52.234Z,71.65
2019-01-03T18:15:23.511Z,71.81
2019-01-03T18:17:54.664Z,71.72
2019-01-03T18:20:24.532Z,71.72
2019-01-03T18:22:55.126Z,71.75
2019-01-03T18:25:24.685Z,71.90
2019-01-03T18:27:59.617Z,71.77
2019-01-03T18:30:29.634Z,71.66
2019-01-03T18:32:59.179Z,71.83
2019-01-03T18:35:28.731Z,71.56
2019-01-03T18:37:58.441Z,71.96
2019-01-03T18:40:28.540Z,71.70
2019-01-03T18:42:58.205Z,71.64
2019-01-03T18:45:28.051Z,71.69
2019-01-03T18:47:57.770Z,71.58
2019-01-03T18:50:27.314Z,71.49
2019-01-03T18:52:58.367Z,71.52
2019-01-03T18:55:27.997Z,71.52
2019-01-03T18:57:58.286Z,71.39
2019-01-03T19:00:32.352Z,71.16
2019-01-03T19:03:03.724Z,71.29
2019-01-03T19:05:33.266Z,71.45
2019-01-03T19:08:02.763Z,71.43
2019-01-03T19:10:33.979Z,71.25
2019-01-03T19:13:05.322Z,71.00
2019-01-03T19:15:34.918Z,71.20
2019-01-03T19:18:04.674Z,71.01
2019-01-03T19:20:34.555Z,70.62
2019-01-03T19:23:04.061Z,70.57
2019-01-03T19:25:33.690Z,70.57
2019-01-03T19:28:03.263Z,70.69
2019-01-03T19:30:32.870Z,70.81
2019-01-03T19:33:03.368Z,70.81
2019-01-03T19:35:33.688Z,70.74
2019-01-03T19:38:03.263Z,70.81
2019-01-03T19:40:32.807Z,70.50
2019-01-03T19:43:06.669Z,70.51
2019-01-03T19:45:37.075Z,70.38
2019-01-03T19:48:06.607Z,70.49
2019-01-03T19:50:37.050Z,70.32
2019-01-03T19:53:06.824Z,70.27
2019-01-03T19:55:36.793Z,70.38
2019-01-03T19:58:06.405Z,70.40
2019-01-03T20:00:36.048Z,70.13
2019-01-03T20:03:06.094Z,70.02
2019-01-03T20:05:35.999Z,69.90
2019-01-03T20:08:05.562Z,69.87
2019-01-03T20:10:35.181Z,69.86
2019-01-03T20:13:04.815Z,69.79
2019-01-03T20:15:34.366Z,69.68
2019-01-03T20:18:04.104Z,69.54
2019-01-03T20:20:33.917Z,69.51
2019-01-03T20:23:03.955Z,69.49
2019-01-03T20:25:35.233Z,69.68
2019-01-03T20:28:05.028Z,69.78
2019-01-03T20:30:34.873Z,69.67
2019-01-03T20:33:04.376Z,69.39
2019-01-03T20:35:34.190Z,69.26
2019-01-03T20:38:03.890Z,69.66
2019-01-03T20:40:33.696Z,69.58
2019-01-03T20:43:03.581Z,69.65
2019-01-03T20:45:33.197Z,69.66
2019-01-03T20:48:05.213Z,69.68
2019-01-03T20:50:34.933Z,69.46
2019-01-03T20:53:04.863Z,69.26
2019-01-03T20:55:38.137Z,69.39
2019-01-03T20:58:07.988Z,69.44
2019-01-03T21:00:37.949Z,69.55
2019-01-03T21:03:08.641Z,69.42
2019-01-03T21:05:40.001Z,69.55
2019-01-03T21:08:10.991Z,69.46
2019-01-03T21:10:40.874Z,69.55
2019-01-03T21:13:10.792Z,69.18
2019-01-03T21:15:40.539Z,69.27
2019-01-03T21:18:10.378Z,69.36
2019-01-03T21:20:43.212Z,69.12
2019-01-03T21:23:13.054Z,69.24
2019-01-03T21:25:43.072Z,69.57
2019-01-03T21:28:12.672Z,69.51
2019-01-03T21:30:43.052Z,69.30
2019-01-03T21:33:12.554Z,69.04
2019-01-03T21:35:42.502Z,68.93
2019-01-03T21:38:12.041Z,69.39
2019-01-03T21:40:42.137Z,69.35
2019-01-03T21:43:11.742Z,69.21
2019-01-03T21:45:41.590Z,69.47
2019-01-03T21:48:11.249Z,69.32
2019-01-03T21:50:41.048Z,69.51
2019-01-03T21:53:10.869Z,69.62
2019-01-03T21:55:40.704Z,69.42
2019-01-03T21:58:10.200Z,69.68
2019-01-03T22:00:40.332Z,69.73
2019-01-03T22:03:10.337Z,69.70
2019-01-03T22:05:39.891Z,69.52
2019-01-03T22:08:09.776Z,69.50
2019-01-03T22:10:39.703Z,69.88
2019-01-03T22:13:14.002Z,69.96
2019-01-03T22:15:45.275Z,69.41
2019-01-03T22:18:16.106Z,69.50
2019-01-03T22:20:46.985Z,69.21
2019-01-03T22:23:17.418Z,69.31
2019-01-03T22:25:49.407Z,69.79
2019-01-03T22:28:19.031Z,69.46
2019-01-03T22:30:48.852Z,69.15
2019-01-03T22:33:19.679Z,68.98
2019-01-03T22:35:49.276Z,69.06
2019-01-03T22:38:19.091Z,69.40
2019-01-03T22:40:48.924Z,69.24
2019-01-03T22:43:18.492Z,69.28
2019-01-03T22:45:48.389Z,69.37
2019-01-03T22:48:18.237Z,69.19
2019-01-03T22:50:48.060Z,69.45
2019-01-03T22:53:17.910Z,68.97
2019-01-03T22:55:47.357Z,69.10
2019-01-03T22:58:17.159Z,68.77
2019-01-03T23:00:51.672Z,69.08
2019-01-03T23:03:21.241Z,68.98
2019-01-03T23:05:50.809Z,69.14
2019-01-03T23:08:20.327Z,69.50
2019-01-03T23:14:27.595Z,69.26
2019-01-03T23:16:57.455Z,69.06
2019-01-03T23:19:38.188Z,68.84
2019-01-03T23:22:07.812Z,69.22
2019-01-03T23:24:38.306Z,68.94
2019-01-03T23:27:07.810Z,69.13
2019-01-03T23:29:37.655Z,69.20
2019-01-03T23:32:07.387Z,69.06
2019-01-03T23:34:37.294Z,69.32
2019-01-03T23:37:07.081Z,69.04
2019-01-03T23:39:37.033Z,68.92
2019-01-03T23:42:07.099Z,68.68
2019-01-03T23:44:36.843Z,68.71
2019-01-03T23:47:06.932Z,69.16
2019-01-03T23:49:36.862Z,68.90
2019-01-03T23:52:06.791Z,69.05
2019-01-03T23:54:36.609Z,69.02
2019-01-03T23:57:06.126Z,68.80
2019-01-03T23:59:35.728Z,69.10
